Список аэропортов
Фактическая погода:

22 января, 23:30
Температура: -7°C (-8.6*)
Ветер: перем. 1 м/с
Давление: *769 мм
несуществ. обл.
Время (МСК)Темп. СВетерВлажностьДавлениеОблачностьОсадки
21:00-6В, 3 м/с83%1030 гПаясно
22:00-6В, 3 м/с82%1030 гПаясно
23:00-6В, 3 м/с81%1030 гПаясно
23 января
00:00-7В, 2 м/с82%1029 гПаясно
01:00-8В, 2 м/с84%1029 гПаясно
02:00-9В, 2 м/с86%1029 гПаясно
03:00-9В, 1 м/с87%1029 гПаясно
04:00-10СВ, 1 м/с88%1029 гПаясно
05:00-11СВ, 1 м/с89%1029 гПаясно
06:00-11СВ, 1 м/с89%1029 гПаясно
07:00-11С, 1 м/с90%1028 гПаясно
08:00-12Штиль 92%1028 гПаясно
09:00-12Ю, 1 м/с91%1028 гПаясно
10:00-12ЮЗ, 1 м/с91%1028 гПаясно
11:00-11ЮЗ, 1 м/с92%1028 гПаясно
12:00-9ЮЗ, 1 м/с89%1028 гПаясно
13:00-6Ю, 2 м/с81%1027 гПаясно
14:00-5ЮЗ, 1 м/с76%1027 гПаясно
15:00-5Ю, 1 м/с74%1026 гПаясно
16:00-4Ю, 1 м/с73%1026 гПаясно
17:00-4ЮВ, 2 м/с70%1025 гПаясно
18:00-5Ю, 1 м/с74%1026 гПаясно
19:00-7З, 1 м/с82%1026 гПаясно
20:00-8З, 1 м/с84%1026 гПаясно
21:00-9З, 1 м/с87%1026 гПаясно
22:00-10СЗ, 1 м/с90%1027 гПаясно
23:00-10СЗ, 2 м/с92%1027 гПаясно
24 января
00:00-10СЗ, 2 м/с92%1027 гПаясно
01:00-11СЗ, 2 м/с92%1027 гПамалооблачно
02:00-11СЗ, 2 м/с93%1027 гПамалооблачно
03:00-11СЗ, 2 м/с93%1028 гПас прояснениями
04:00-11СЗ, 2 м/с92%1028 гПаоблачно
05:00-10СЗ, 2 м/с93%1027 гПаоблачно
06:00-9СЗ, 2 м/с95%1027 гПаоблачно
07:00-8СЗ, 2 м/с96%1027 гПаоблачно
08:00-7СЗ, 2 м/с95%1027 гПаоблачно
09:00-7С, 2 м/с95%1027 гПаоблачно
10:00-6С, 2 м/с94%1027 гПаоблачно
11:00-6С, 2 м/с93%1027 гПаоблачно
12:00-6СЗ, 1 м/с92%1028 гПаоблачно
13:00-5С, 1 м/с91%1027 гПаоблачно
14:00-5С, 1 м/с88%1027 гПаоблачно
15:00-4С, 2 м/с86%1027 гПаоблачно
16:00-4СВ, 2 м/с84%1027 гПаоблачно
17:00-4С, 2 м/с82%1028 гПаоблачно
18:00-4СВ, 2 м/с80%1028 гПас прояснениями
19:00-5С, 2 м/с83%1028 гПаоблачно
20:00-4СВ, 3 м/с81%1029 гПаоблачно
21:00-4СВ, 2 м/с82%1029 гПаоблачно